This is the latest recevied weather packets stored in our database for station/object F4BQN-15. If no packets are shown the sender has not sent any weather packets the latest 10 day(s).
| Time | Temp. | Humidity | Pressure | Rain* | Wind** | Luminosity | Snow |
|---|---|---|---|---|---|---|---|
| 1777902818 | 31.11° C | 40% | 982.8 hPa | - | - | - | - |
| 1777901918 | 31.67° C | 40% | 983 hPa | - | - | - | - |
| 1777901017 | 33.89° C | 37% | 983 hPa | - | - | - | - |
| 1777900117 | 33.89° C | 38% | 983.2 hPa | - | - | - | - |
| 1777899217 | 31.11° C | 41% | 983.5 hPa | - | - | - | - |
| 1777898317 | 33.33° C | 39% | 983.6 hPa | - | - | - | - |
| 1777897417 | 32.22° C | 38% | 983.6 hPa | - | - | - | - |
| 1777896517 | 28.33° C | 42% | 983.8 hPa | - | - | - | - |
| 1777895617 | 29.44° C | 41% | 983.8 hPa | - | - | - | - |
| 1777894719 | 28.33° C | 42% | 984.1 hPa | - | - | - | - |
| 1777892917 | 25.56° C | 43% | 984.6 hPa | - | - | - | - |
| 1777892017 | 24.44° C | 43% | 984.5 hPa | - | - | - | - |
| 1777891117 | 23.89° C | 44% | 984.6 hPa | - | - | - | - |
| 1777890217 | 23.33° C | 43% | 984.7 hPa | - | - | - | - |
| 1777889294 | 21.67° C | 44% | 984.9 hPa | - | - | - | - |
| 1777888386 | 21.11° C | 45% | 985 hPa | - | - | - | - |
| 1777887486 | 20.56° C | 45% | 985 hPa | - | - | - | - |
| 1777886586 | 20.56° C | 45% | 985 hPa | - | - | - | - |
| 1777885687 | 20° C | 45% | 985.1 hPa | - | - | - | - |
| 1777884786 | 19.44° C | 45% | 985 hPa | - | - | - | - |
| 1777883887 | 19.44° C | 45% | 985 hPa | - | - | - | - |
| 1777882986 | 18.89° C | 46% | 985 hPa | - | - | - | - |
| 1777882087 | 18.89° C | 46% | 985.1 hPa | - | - | - | - |
| 1777881186 | 18.33° C | 46% | 985 hPa | - | - | - | - |
| 1777880285 | 17.78° C | 46% | 984.9 hPa | - | - | - | - |
* Rain since midnight (hover to see other rain measurements)
** Current wind speed in m/s (hover to see current wind gust speed)